Terminal Aerodrome Forecast
Issued by NWS Melbourne, FL

Home | Current Version | Previous Version | Text Only | Print | Product List | Glossary On
Versions: 1 2 3 4 5 6 7 8 9 10 11 12 13 14 15 16
000
FTUS42 KMLB 271121
TAFMLB
TAF
KMLB 271121Z 2712/2812 27009KT P6SM FEW015 SCT100 BKN200
     FM271500 29010KT P6SM SCT030 BKN100
     FM271900 05008KT P6SM VCSH SCT030 BKN060
     FM280100 VRB04KT P6SM FEW025 BKN120=

USA.gov is the U.S. government's official web portal to all federal, state and local government web resources and services.